sensor_id;sensor_type;location;lat;lon;timestamp;P1;durP1;ratioP1;P2;durP2;ratioP2
22070;SDS011;11200;51.488;6.668;2023-06-10T00:01:23;7.10;;;6.25;;
22070;SDS011;11200;51.488;6.668;2023-06-10T00:03:50;6.95;;;6.13;;
22070;SDS011;11200;51.488;6.668;2023-06-10T00:06:16;7.05;;;6.32;;
22070;SDS011;11200;51.488;6.668;2023-06-10T00:08:42;8.20;;;6.75;;
22070;SDS011;11200;51.488;6.668;2023-06-10T00:11:08;6.97;;;6.28;;
22070;SDS011;11200;51.488;6.668;2023-06-10T00:13:35;7.82;;;6.38;;
22070;SDS011;11200;51.488;6.668;2023-06-10T00:16:03;7.25;;;6.55;;
22070;SDS011;11200;51.488;6.668;2023-06-10T00:18:29;6.75;;;6.13;;
22070;SDS011;11200;51.488;6.668;2023-06-10T00:20:56;7.75;;;6.95;;
22070;SDS011;11200;51.488;6.668;2023-06-10T00:23:28;7.25;;;6.13;;
22070;SDS011;11200;51.488;6.668;2023-06-10T00:25:55;6.60;;;6.00;;
22070;SDS011;11200;51.488;6.668;2023-06-10T00:28:22;7.28;;;6.57;;
22070;SDS011;11200;51.488;6.668;2023-06-10T00:30:48;7.38;;;6.28;;
22070;SDS011;11200;51.488;6.668;2023-06-10T00:33:15;7.15;;;6.45;;
22070;SDS011;11200;51.488;6.668;2023-06-10T00:35:40;7.00;;;6.35;;
22070;SDS011;11200;51.488;6.668;2023-06-10T00:38:06;7.20;;;6.50;;
22070;SDS011;11200;51.488;6.668;2023-06-10T00:40:33;7.30;;;6.60;;
22070;SDS011;11200;51.488;6.668;2023-06-10T00:43:03;7.50;;;6.35;;
22070;SDS011;11200;51.488;6.668;2023-06-10T00:45:29;7.82;;;6.82;;
22070;SDS011;11200;51.488;6.668;2023-06-10T00:47:55;7.22;;;6.45;;
22070;SDS011;11200;51.488;6.668;2023-06-10T00:50:21;7.47;;;6.13;;
22070;SDS011;11200;51.488;6.668;2023-06-10T00:52:47;7.05;;;6.43;;
22070;SDS011;11200;51.488;6.668;2023-06-10T00:55:13;7.70;;;6.90;;
22070;SDS011;11200;51.488;6.668;2023-06-10T00:57:41;8.65;;;6.45;;
22070;SDS011;11200;51.488;6.668;2023-06-10T01:00:09;7.95;;;6.93;;
22070;SDS011;11200;51.488;6.668;2023-06-10T01:02:36;9.55;;;6.90;;
22070;SDS011;11200;51.488;6.668;2023-06-10T01:05:01;8.25;;;6.88;;
22070;SDS011;11200;51.488;6.668;2023-06-10T01:07:31;7.53;;;6.30;;
22070;SDS011;11200;51.488;6.668;2023-06-10T01:10:08;7.43;;;6.72;;
22070;SDS011;11200;51.488;6.668;2023-06-10T01:12:58;7.00;;;6.30;;
22070;SDS011;11200;51.488;6.668;2023-06-10T01:15:27;6.78;;;6.07;;
22070;SDS011;11200;51.488;6.668;2023-06-10T01:18:01;7.05;;;6.25;;
22070;SDS011;11200;51.488;6.668;2023-06-10T01:20:27;7.57;;;6.80;;
22070;SDS011;11200;51.488;6.668;2023-06-10T01:22:54;8.57;;;6.80;;
22070;SDS011;11200;51.488;6.668;2023-06-10T01:25:21;7.15;;;6.45;;
22070;SDS011;11200;51.488;6.668;2023-06-10T01:27:52;7.03;;;6.43;;
22070;SDS011;11200;51.488;6.668;2023-06-10T01:30:21;8.00;;;7.18;;
22070;SDS011;11200;51.488;6.668;2023-06-10T01:32:50;6.97;;;6.20;;
22070;SDS011;11200;51.488;6.668;2023-06-10T01:35:18;7.65;;;6.32;;
22070;SDS011;11200;51.488;6.668;2023-06-10T01:37:46;7.18;;;6.45;;
22070;SDS011;11200;51.488;6.668;2023-06-10T01:40:13;6.68;;;5.97;;
22070;SDS011;11200;51.488;6.668;2023-06-10T01:42:40;7.05;;;6.35;;
22070;SDS011;11200;51.488;6.668;2023-06-10T01:45:06;7.22;;;6.22;;
22070;SDS011;11200;51.488;6.668;2023-06-10T01:47:32;9.68;;;6.75;;
22070;SDS011;11200;51.488;6.668;2023-06-10T01:49:57;8.10;;;6.72;;
22070;SDS011;11200;51.488;6.668;2023-06-10T01:52:23;6.95;;;6.25;;
22070;SDS011;11200;51.488;6.668;2023-06-10T01:54:48;9.00;;;6.95;;
22070;SDS011;11200;51.488;6.668;2023-06-10T01:57:14;6.90;;;6.20;;
22070;SDS011;11200;51.488;6.668;2023-06-10T01:59:40;8.18;;;6.22;;
22070;SDS011;11200;51.488;6.668;2023-06-10T02:02:09;7.22;;;6.03;;
22070;SDS011;11200;51.488;6.668;2023-06-10T02:04:34;8.32;;;6.47;;
22070;SDS011;11200;51.488;6.668;2023-06-10T02:07:00;7.25;;;6.55;;
22070;SDS011;11200;51.488;6.668;2023-06-10T02:09:28;6.95;;;6.07;;
22070;SDS011;11200;51.488;6.668;2023-06-10T02:11:55;6.70;;;6.10;;
22070;SDS011;11200;51.488;6.668;2023-06-10T02:14:20;7.70;;;6.90;;
22070;SDS011;11200;51.488;6.668;2023-06-10T02:16:46;10.52;;;6.82;;
22070;SDS011;11200;51.488;6.668;2023-06-10T02:19:13;7.78;;;6.63;;
22070;SDS011;11200;51.488;6.668;2023-06-10T02:21:38;6.95;;;6.28;;
22070;SDS011;11200;51.488;6.668;2023-06-10T02:24:04;7.68;;;6.65;;
22070;SDS011;11200;51.488;6.668;2023-06-10T02:26:30;7.80;;;7.03;;
22070;SDS011;11200;51.488;6.668;2023-06-10T02:28:56;9.38;;;7.30;;
22070;SDS011;11200;51.488;6.668;2023-06-10T02:31:22;7.43;;;6.65;;
22070;SDS011;11200;51.488;6.668;2023-06-10T02:33:49;7.78;;;6.82;;
22070;SDS011;11200;51.488;6.668;2023-06-10T02:36:16;10.48;;;6.88;;
22070;SDS011;11200;51.488;6.668;2023-06-10T02:38:41;7.38;;;6.68;;
22070;SDS011;11200;51.488;6.668;2023-06-10T02:41:07;8.05;;;7.25;;
22070;SDS011;11200;51.488;6.668;2023-06-10T02:43:33;7.55;;;6.85;;
22070;SDS011;11200;51.488;6.668;2023-06-10T02:45:59;8.25;;;6.85;;
22070;SDS011;11200;51.488;6.668;2023-06-10T02:48:24;8.45;;;6.63;;
22070;SDS011;11200;51.488;6.668;2023-06-10T02:50:51;7.50;;;6.80;;
22070;SDS011;11200;51.488;6.668;2023-06-10T02:53:17;8.68;;;7.25;;
22070;SDS011;11200;51.488;6.668;2023-06-10T02:55:42;6.95;;;6.25;;
22070;SDS011;11200;51.488;6.668;2023-06-10T02:58:09;7.50;;;6.80;;
22070;SDS011;11200;51.488;6.668;2023-06-10T03:00:34;7.03;;;6.32;;
22070;SDS011;11200;51.488;6.668;2023-06-10T03:03:00;8.00;;;6.85;;
22070;SDS011;11200;51.488;6.668;2023-06-10T03:05:29;7.57;;;6.88;;
22070;SDS011;11200;51.488;6.668;2023-06-10T03:07:55;8.13;;;6.85;;
22070;SDS011;11200;51.488;6.668;2023-06-10T03:10:20;8.05;;;7.25;;
22070;SDS011;11200;51.488;6.668;2023-06-10T03:12:46;7.53;;;6.82;;
22070;SDS011;11200;51.488;6.668;2023-06-10T03:15:12;7.70;;;6.80;;
22070;SDS011;11200;51.488;6.668;2023-06-10T03:17:38;7.38;;;6.68;;
22070;SDS011;11200;51.488;6.668;2023-06-10T03:20:03;8.00;;;7.20;;
22070;SDS011;11200;51.488;6.668;2023-06-10T03:22:30;8.52;;;6.75;;
22070;SDS011;11200;51.488;6.668;2023-06-10T03:24:56;7.82;;;6.72;;
22070;SDS011;11200;51.488;6.668;2023-06-10T03:27:22;7.57;;;6.88;;
22070;SDS011;11200;51.488;6.668;2023-06-10T03:29:48;7.68;;;6.97;;
22070;SDS011;11200;51.488;6.668;2023-06-10T03:32:13;7.60;;;6.90;;
22070;SDS011;11200;51.488;6.668;2023-06-10T03:34:40;7.57;;;6.75;;
22070;SDS011;11200;51.488;6.668;2023-06-10T03:37:05;7.35;;;6.65;;
22070;SDS011;11200;51.488;6.668;2023-06-10T03:39:32;7.90;;;7.10;;
22070;SDS011;11200;51.488;6.668;2023-06-10T03:41:57;8.25;;;7.45;;
22070;SDS011;11200;51.488;6.668;2023-06-10T03:44:24;7.43;;;6.72;;
22070;SDS011;11200;51.488;6.668;2023-06-10T03:46:51;8.25;;;6.97;;
22070;SDS011;11200;51.488;6.668;2023-06-10T03:49:16;7.95;;;7.25;;
22070;SDS011;11200;51.488;6.668;2023-06-10T03:51:42;7.85;;;7.05;;
22070;SDS011;11200;51.488;6.668;2023-06-10T03:54:09;8.50;;;7.68;;
22070;SDS011;11200;51.488;6.668;2023-06-10T03:56:35;7.65;;;6.93;;
22070;SDS011;11200;51.488;6.668;2023-06-10T03:59:00;8.50;;;7.60;;
22070;SDS011;11200;51.488;6.668;2023-06-10T04:01:26;8.80;;;7.88;;
22070;SDS011;11200;51.488;6.668;2023-06-10T04:03:52;8.40;;;7.60;;
22070;SDS011;11200;51.488;6.668;2023-06-10T04:06:19;8.55;;;7.53;;
22070;SDS011;11200;51.488;6.668;2023-06-10T04:08:48;7.78;;;7.05;;
22070;SDS011;11200;51.488;6.668;2023-06-10T04:11:14;7.82;;;7.03;;
22070;SDS011;11200;51.488;6.668;2023-06-10T04:13:39;8.13;;;7.32;;
22070;SDS011;11200;51.488;6.668;2023-06-10T04:16:05;8.00;;;7.28;;
22070;SDS011;11200;51.488;6.668;2023-06-10T04:18:32;8.75;;;7.47;;
22070;SDS011;11200;51.488;6.668;2023-06-10T04:20:57;8.02;;;7.22;;
22070;SDS011;11200;51.488;6.668;2023-06-10T04:23:23;8.18;;;6.97;;
22070;SDS011;11200;51.488;6.668;2023-06-10T04:25:49;8.20;;;7.40;;
22070;SDS011;11200;51.488;6.668;2023-06-10T04:28:15;8.18;;;7.30;;
22070;SDS011;11200;51.488;6.668;2023-06-10T04:30:41;9.48;;;7.00;;
22070;SDS011;11200;51.488;6.668;2023-06-10T04:33:06;7.63;;;6.88;;
22070;SDS011;11200;51.488;6.668;2023-06-10T04:35:34;7.40;;;6.72;;
22070;SDS011;11200;51.488;6.668;2023-06-10T04:37:59;8.32;;;7.28;;
22070;SDS011;11200;51.488;6.668;2023-06-10T04:40:27;7.38;;;6.68;;
22070;SDS011;11200;51.488;6.668;2023-06-10T04:42:53;8.23;;;7.32;;
22070;SDS011;11200;51.488;6.668;2023-06-10T04:45:18;7.60;;;6.90;;
22070;SDS011;11200;51.488;6.668;2023-06-10T04:47:44;7.70;;;6.90;;
22070;SDS011;11200;51.488;6.668;2023-06-10T04:50:10;7.65;;;6.88;;
22070;SDS011;11200;51.488;6.668;2023-06-10T04:52:35;7.25;;;6.55;;
22070;SDS011;11200;51.488;6.668;2023-06-10T04:55:01;8.65;;;7.20;;
22070;SDS011;11200;51.488;6.668;2023-06-10T04:57:27;7.95;;;7.18;;
22070;SDS011;11200;51.488;6.668;2023-06-10T04:59:52;8.00;;;7.30;;
22070;SDS011;11200;51.488;6.668;2023-06-10T05:02:18;7.80;;;7.00;;
22070;SDS011;11200;51.488;6.668;2023-06-10T05:04:44;7.43;;;6.72;;
22070;SDS011;11200;51.488;6.668;2023-06-10T05:07:09;8.02;;;7.22;;
22070;SDS011;11200;51.488;6.668;2023-06-10T05:09:35;7.22;;;6.53;;
22070;SDS011;11200;51.488;6.668;2023-06-10T05:12:02;7.35;;;6.65;;
22070;SDS011;11200;51.488;6.668;2023-06-10T05:14:28;7.65;;;6.85;;
22070;SDS011;11200;51.488;6.668;2023-06-10T05:16:53;6.95;;;6.25;;
22070;SDS011;11200;51.488;6.668;2023-06-10T05:19:22;7.68;;;6.55;;
22070;SDS011;11200;51.488;6.668;2023-06-10T05:21:47;7.28;;;6.57;;
22070;SDS011;11200;51.488;6.668;2023-06-10T05:24:13;7.20;;;6.50;;
22070;SDS011;11200;51.488;6.668;2023-06-10T05:26:39;8.38;;;6.72;;
22070;SDS011;11200;51.488;6.668;2023-06-10T05:29:06;7.40;;;6.57;;
22070;SDS011;11200;51.488;6.668;2023-06-10T05:31:33;7.72;;;6.93;;
22070;SDS011;11200;51.488;6.668;2023-06-10T05:36:26;7.80;;;7.00;;
22070;SDS011;11200;51.488;6.668;2023-06-10T05:38:52;7.85;;;7.00;;
22070;SDS011;11200;51.488;6.668;2023-06-10T05:41:18;7.38;;;6.38;;
22070;SDS011;11200;51.488;6.668;2023-06-10T05:43:44;6.97;;;6.28;;
22070;SDS011;11200;51.488;6.668;2023-06-10T05:46:09;7.90;;;7.10;;
22070;SDS011;11200;51.488;6.668;2023-06-10T05:48:35;8.10;;;6.40;;
22070;SDS011;11200;51.488;6.668;2023-06-10T05:51:01;7.47;;;6.72;;
22070;SDS011;11200;51.488;6.668;2023-06-10T05:53:26;6.80;;;6.15;;
22070;SDS011;11200;51.488;6.668;2023-06-10T05:55:52;6.70;;;6.10;;
22070;SDS011;11200;51.488;6.668;2023-06-10T05:58:22;6.43;;;5.82;;
22070;SDS011;11200;51.488;6.668;2023-06-10T06:00:48;7.95;;;6.20;;
22070;SDS011;11200;51.488;6.668;2023-06-10T06:03:14;6.88;;;6.22;;
22070;SDS011;11200;51.488;6.668;2023-06-10T06:05:39;7.57;;;6.57;;
22070;SDS011;11200;51.488;6.668;2023-06-10T06:08:05;7.03;;;6.10;;
22070;SDS011;11200;51.488;6.668;2023-06-10T06:10:31;7.05;;;6.03;;
22070;SDS011;11200;51.488;6.668;2023-06-10T06:12:57;7.13;;;6.43;;
22070;SDS011;11200;51.488;6.668;2023-06-10T06:15:23;9.25;;;6.10;;
22070;SDS011;11200;51.488;6.668;2023-06-10T06:17:48;7.25;;;6.05;;
22070;SDS011;11200;51.488;6.668;2023-06-10T06:20:14;6.60;;;5.88;;
22070;SDS011;11200;51.488;6.668;2023-06-10T06:22:39;7.45;;;6.45;;
22070;SDS011;11200;51.488;6.668;2023-06-10T06:25:05;7.60;;;6.30;;
22070;SDS011;11200;51.488;6.668;2023-06-10T06:27:31;8.05;;;5.88;;
22070;SDS011;11200;51.488;6.668;2023-06-10T06:29:57;7.55;;;6.45;;
22070;SDS011;11200;51.488;6.668;2023-06-10T06:32:22;6.80;;;6.20;;
22070;SDS011;11200;51.488;6.668;2023-06-10T06:34:49;6.53;;;5.82;;
22070;SDS011;11200;51.488;6.668;2023-06-10T06:37:19;7.20;;;5.85;;
22070;SDS011;11200;51.488;6.668;2023-06-10T06:39:51;7.47;;;5.90;;
22070;SDS011;11200;51.488;6.668;2023-06-10T06:42:18;7.50;;;6.03;;
22070;SDS011;11200;51.488;6.668;2023-06-10T06:44:44;7.38;;;6.00;;
22070;SDS011;11200;51.488;6.668;2023-06-10T06:47:10;7.03;;;5.90;;
22070;SDS011;11200;51.488;6.668;2023-06-10T06:49:35;7.43;;;6.22;;
22070;SDS011;11200;51.488;6.668;2023-06-10T06:52:01;6.90;;;5.53;;
22070;SDS011;11200;51.488;6.668;2023-06-10T06:54:27;6.95;;;5.90;;
22070;SDS011;11200;51.488;6.668;2023-06-10T06:56:53;6.57;;;5.97;;
22070;SDS011;11200;51.488;6.668;2023-06-10T06:59:18;6.75;;;5.68;;
22070;SDS011;11200;51.488;6.668;2023-06-10T07:01:44;7.10;;;5.10;;
22070;SDS011;11200;51.488;6.668;2023-06-10T07:04:11;6.68;;;5.35;;
22070;SDS011;11200;51.488;6.668;2023-06-10T07:06:40;6.30;;;5.53;;
22070;SDS011;11200;51.488;6.668;2023-06-10T07:09:09;7.20;;;5.50;;
22070;SDS011;11200;51.488;6.668;2023-06-10T07:11:36;5.78;;;5.13;;
22070;SDS011;11200;51.488;6.668;2023-06-10T07:14:01;6.72;;;6.00;;
22070;SDS011;11200;51.488;6.668;2023-06-10T07:16:27;7.22;;;6.07;;
22070;SDS011;11200;51.488;6.668;2023-06-10T07:18:53;6.88;;;5.80;;
22070;SDS011;11200;51.488;6.668;2023-06-10T07:21:18;7.70;;;5.57;;
22070;SDS011;11200;51.488;6.668;2023-06-10T07:23:44;7.00;;;5.40;;
22070;SDS011;11200;51.488;6.668;2023-06-10T07:26:11;6.47;;;5.80;;
22070;SDS011;11200;51.488;6.668;2023-06-10T07:28:38;5.78;;;5.10;;
22070;SDS011;11200;51.488;6.668;2023-06-10T07:31:04;6.32;;;5.30;;
22070;SDS011;11200;51.488;6.668;2023-06-10T07:33:30;6.53;;;5.28;;
22070;SDS011;11200;51.488;6.668;2023-06-10T07:35:56;7.65;;;5.38;;
22070;SDS011;11200;51.488;6.668;2023-06-10T07:38:22;7.18;;;5.68;;
22070;SDS011;11200;51.488;6.668;2023-06-10T07:40:47;6.85;;;5.22;;
22070;SDS011;11200;51.488;6.668;2023-06-10T07:43:13;6.00;;;5.15;;
22070;SDS011;11200;51.488;6.668;2023-06-10T07:45:42;7.05;;;5.50;;
22070;SDS011;11200;51.488;6.668;2023-06-10T07:48:08;6.45;;;5.40;;
22070;SDS011;11200;51.488;6.668;2023-06-10T07:50:33;6.72;;;5.45;;
22070;SDS011;11200;51.488;6.668;2023-06-10T07:52:59;7.47;;;5.70;;
22070;SDS011;11200;51.488;6.668;2023-06-10T07:55:25;7.20;;;5.43;;
22070;SDS011;11200;51.488;6.668;2023-06-10T07:57:51;7.03;;;5.38;;
22070;SDS011;11200;51.488;6.668;2023-06-10T08:00:20;6.03;;;5.38;;
22070;SDS011;11200;51.488;6.668;2023-06-10T08:02:46;7.20;;;5.30;;
22070;SDS011;11200;51.488;6.668;2023-06-10T08:05:12;5.72;;;4.85;;
22070;SDS011;11200;51.488;6.668;2023-06-10T08:07:40;7.03;;;5.38;;
22070;SDS011;11200;51.488;6.668;2023-06-10T08:10:06;6.43;;;5.13;;
22070;SDS011;11200;51.488;6.668;2023-06-10T08:12:32;6.47;;;4.93;;
22070;SDS011;11200;51.488;6.668;2023-06-10T08:14:58;7.35;;;5.40;;
22070;SDS011;11200;51.488;6.668;2023-06-10T08:17:25;7.05;;;5.25;;
22070;SDS011;11200;51.488;6.668;2023-06-10T08:19:50;5.93;;;5.22;;
22070;SDS011;11200;51.488;6.668;2023-06-10T08:22:16;6.90;;;4.90;;
22070;SDS011;11200;51.488;6.668;2023-06-10T08:24:42;5.72;;;5.13;;
22070;SDS011;11200;51.488;6.668;2023-06-10T08:27:07;6.53;;;4.93;;
22070;SDS011;11200;51.488;6.668;2023-06-10T08:29:33;6.03;;;4.78;;
22070;SDS011;11200;51.488;6.668;2023-06-10T08:31:59;5.93;;;4.90;;
22070;SDS011;11200;51.488;6.668;2023-06-10T08:34:25;6.20;;;4.90;;
22070;SDS011;11200;51.488;6.668;2023-06-10T08:36:50;8.07;;;5.10;;
22070;SDS011;11200;51.488;6.668;2023-06-10T08:39:18;6.15;;;5.07;;
22070;SDS011;11200;51.488;6.668;2023-06-10T08:41:48;5.20;;;4.55;;
22070;SDS011;11200;51.488;6.668;2023-06-10T08:44:29;6.75;;;4.90;;
22070;SDS011;11200;51.488;6.668;2023-06-10T08:46:58;5.75;;;5.13;;
22070;SDS011;11200;51.488;6.668;2023-06-10T08:49:26;6.22;;;5.32;;
22070;SDS011;11200;51.488;6.668;2023-06-10T08:51:55;5.18;;;4.60;;
22070;SDS011;11200;51.488;6.668;2023-06-10T08:54:25;6.25;;;4.47;;
22070;SDS011;11200;51.488;6.668;2023-06-10T08:57:02;6.45;;;4.72;;
22070;SDS011;11200;51.488;6.668;2023-06-10T08:59:30;6.18;;;4.75;;
22070;SDS011;11200;51.488;6.668;2023-06-10T09:01:56;6.13;;;4.75;;
22070;SDS011;11200;51.488;6.668;2023-06-10T09:04:24;5.53;;;4.45;;
22070;SDS011;11200;51.488;6.668;2023-06-10T09:06:49;5.63;;;4.85;;
22070;SDS011;11200;51.488;6.668;2023-06-10T09:09:16;5.10;;;4.60;;
22070;SDS011;11200;51.488;6.668;2023-06-10T09:11:42;5.80;;;4.90;;
22070;SDS011;11200;51.488;6.668;2023-06-10T09:14:08;5.65;;;5.05;;
22070;SDS011;11200;51.488;6.668;2023-06-10T09:16:34;6.90;;;5.05;;
22070;SDS011;11200;51.488;6.668;2023-06-10T09:19:00;5.25;;;4.75;;
22070;SDS011;11200;51.488;6.668;2023-06-10T09:21:32;7.20;;;5.05;;
22070;SDS011;11200;51.488;6.668;2023-06-10T09:23:59;4.93;;;4.53;;
22070;SDS011;11200;51.488;6.668;2023-06-10T09:26:28;4.63;;;4.22;;
22070;SDS011;11200;51.488;6.668;2023-06-10T09:29:13;5.80;;;4.75;;
22070;SDS011;11200;51.488;6.668;2023-06-10T09:31:39;5.45;;;4.70;;
22070;SDS011;11200;51.488;6.668;2023-06-10T09:34:09;5.07;;;4.57;;
22070;SDS011;11200;51.488;6.668;2023-06-10T09:36:36;6.07;;;4.70;;
22070;SDS011;11200;51.488;6.668;2023-06-10T09:39:03;5.65;;;4.93;;
22070;SDS011;11200;51.488;6.668;2023-06-10T09:41:33;5.63;;;4.82;;
22070;SDS011;11200;51.488;6.668;2023-06-10T09:44:12;7.03;;;5.20;;
22070;SDS011;11200;51.488;6.668;2023-06-10T09:46:39;5.35;;;4.60;;
22070;SDS011;11200;51.488;6.668;2023-06-10T09:49:12;5.43;;;4.93;;
22070;SDS011;11200;51.488;6.668;2023-06-10T09:51:41;5.80;;;5.00;;
22070;SDS011;11200;51.488;6.668;2023-06-10T09:54:18;6.50;;;5.07;;
22070;SDS011;11200;51.488;6.668;2023-06-10T09:56:46;5.10;;;4.22;;
22070;SDS011;11200;51.488;6.668;2023-06-10T09:59:27;5.63;;;5.10;;
22070;SDS011;11200;51.488;6.668;2023-06-10T10:01:55;5.45;;;4.50;;
22070;SDS011;11200;51.488;6.668;2023-06-10T10:04:24;4.93;;;4.43;;
22070;SDS011;11200;51.488;6.668;2023-06-10T10:06:50;5.72;;;4.82;;
22070;SDS011;11200;51.488;6.668;2023-06-10T10:09:16;5.25;;;4.47;;
22070;SDS011;11200;51.488;6.668;2023-06-10T10:11:41;4.70;;;4.30;;
22070;SDS011;11200;51.488;6.668;2023-06-10T10:14:08;5.10;;;4.60;;
22070;SDS011;11200;51.488;6.668;2023-06-10T10:16:35;5.35;;;4.80;;
22070;SDS011;11200;51.488;6.668;2023-06-10T10:19:10;6.13;;;5.00;;
22070;SDS011;11200;51.488;6.668;2023-06-10T10:21:46;5.50;;;5.00;;
22070;SDS011;11200;51.488;6.668;2023-06-10T10:24:23;9.00;;;5.28;;
22070;SDS011;11200;51.488;6.668;2023-06-10T10:26:55;11.85;;;5.10;;
22070;SDS011;11200;51.488;6.668;2023-06-10T10:29:38;6.45;;;5.10;;
22070;SDS011;11200;51.488;6.668;2023-06-10T10:32:06;7.55;;;5.20;;
22070;SDS011;11200;51.488;6.668;2023-06-10T10:37:35;5.40;;;4.90;;
22070;SDS011;11200;51.488;6.668;2023-06-10T10:40:01;5.28;;;4.78;;
22070;SDS011;11200;51.488;6.668;2023-06-10T10:42:28;6.85;;;5.10;;
22070;SDS011;11200;51.488;6.668;2023-06-10T10:44:55;5.72;;;5.05;;
22070;SDS011;11200;51.488;6.668;2023-06-10T10:47:21;5.45;;;4.78;;
22070;SDS011;11200;51.488;6.668;2023-06-10T10:49:50;6.20;;;5.10;;
22070;SDS011;11200;51.488;6.668;2023-06-10T10:52:18;5.35;;;4.85;;
22070;SDS011;11200;51.488;6.668;2023-06-10T10:54:44;7.25;;;5.50;;
22070;SDS011;11200;51.488;6.668;2023-06-10T11:00:02;5.78;;;5.00;;
22070;SDS011;11200;51.488;6.668;2023-06-10T11:05:05;6.05;;;5.45;;
22070;SDS011;11200;51.488;6.668;2023-06-10T11:07:32;6.50;;;5.13;;
22070;SDS011;11200;51.488;6.668;2023-06-10T11:10:02;6.70;;;5.60;;
22070;SDS011;11200;51.488;6.668;2023-06-10T11:15:10;7.90;;;5.28;;
22070;SDS011;11200;51.488;6.668;2023-06-10T11:17:37;6.55;;;5.05;;
22070;SDS011;11200;51.488;6.668;2023-06-10T11:20:02;5.70;;;5.20;;
22070;SDS011;11200;51.488;6.668;2023-06-10T11:22:31;6.35;;;5.28;;
22070;SDS011;11200;51.488;6.668;2023-06-10T11:24:57;6.05;;;4.90;;
22070;SDS011;11200;51.488;6.668;2023-06-10T11:27:24;6.22;;;5.18;;
22070;SDS011;11200;51.488;6.668;2023-06-10T11:32:31;5.63;;;4.93;;
22070;SDS011;11200;51.488;6.668;2023-06-10T11:34:57;5.55;;;5.05;;
22070;SDS011;11200;51.488;6.668;2023-06-10T11:37:23;5.93;;;5.22;;
22070;SDS011;11200;51.488;6.668;2023-06-10T11:42:25;6.47;;;5.40;;
22070;SDS011;11200;51.488;6.668;2023-06-10T11:44:51;5.75;;;5.18;;
22070;SDS011;11200;51.488;6.668;2023-06-10T11:47:19;6.13;;;5.10;;
22070;SDS011;11200;51.488;6.668;2023-06-10T11:49:45;6.25;;;5.10;;
22070;SDS011;11200;51.488;6.668;2023-06-10T11:52:25;5.65;;;4.85;;
22070;SDS011;11200;51.488;6.668;2023-06-10T11:54:57;5.65;;;5.15;;
22070;SDS011;11200;51.488;6.668;2023-06-10T11:57:22;6.68;;;5.10;;
22070;SDS011;11200;51.488;6.668;2023-06-10T11:59:48;5.60;;;4.90;;
22070;SDS011;11200;51.488;6.668;2023-06-10T12:02:14;5.63;;;5.13;;
22070;SDS011;11200;51.488;6.668;2023-06-10T12:04:41;5.72;;;5.13;;
22070;SDS011;11200;51.488;6.668;2023-06-10T12:07:07;5.57;;;5.05;;
22070;SDS011;11200;51.488;6.668;2023-06-10T12:09:34;5.82;;;5.20;;
22070;SDS011;11200;51.488;6.668;2023-06-10T12:12:00;6.60;;;5.40;;
22070;SDS011;11200;51.488;6.668;2023-06-10T12:19:55;7.20;;;5.78;;
22070;SDS011;11200;51.488;6.668;2023-06-10T12:22:21;6.68;;;5.70;;
22070;SDS011;11200;51.488;6.668;2023-06-10T12:24:58;5.65;;;4.78;;
22070;SDS011;11200;51.488;6.668;2023-06-10T12:27:24;6.30;;;5.70;;
22070;SDS011;11200;51.488;6.668;2023-06-10T12:29:51;6.20;;;5.60;;
22070;SDS011;11200;51.488;6.668;2023-06-10T12:32:18;6.25;;;4.90;;
22070;SDS011;11200;51.488;6.668;2023-06-10T12:34:47;5.57;;;4.97;;
22070;SDS011;11200;51.488;6.668;2023-06-10T12:37:13;5.72;;;5.20;;
22070;SDS011;11200;51.488;6.668;2023-06-10T12:39:39;5.63;;;5.13;;
22070;SDS011;11200;51.488;6.668;2023-06-10T12:42:06;6.07;;;5.25;;
22070;SDS011;11200;51.488;6.668;2023-06-10T12:44:35;7.93;;;5.10;;
22070;SDS011;11200;51.488;6.668;2023-06-10T12:47:08;7.25;;;5.15;;
22070;SDS011;11200;51.488;6.668;2023-06-10T12:49:35;5.53;;;5.03;;
22070;SDS011;11200;51.488;6.668;2023-06-10T12:52:01;5.45;;;4.82;;
22070;SDS011;11200;51.488;6.668;2023-06-10T12:54:28;7.68;;;5.35;;
22070;SDS011;11200;51.488;6.668;2023-06-10T12:56:53;7.25;;;5.22;;
22070;SDS011;11200;51.488;6.668;2023-06-10T12:59:19;5.47;;;4.97;;
22070;SDS011;11200;51.488;6.668;2023-06-10T13:01:49;5.50;;;5.00;;
22070;SDS011;11200;51.488;6.668;2023-06-10T13:04:16;6.25;;;5.65;;
22070;SDS011;11200;51.488;6.668;2023-06-10T13:06:43;5.70;;;5.10;;
22070;SDS011;11200;51.488;6.668;2023-06-10T13:09:09;5.88;;;5.30;;
22070;SDS011;11200;51.488;6.668;2023-06-10T13:11:35;7.03;;;5.18;;
22070;SDS011;11200;51.488;6.668;2023-06-10T13:14:01;5.70;;;5.20;;
22070;SDS011;11200;51.488;6.668;2023-06-10T13:16:29;5.93;;;5.20;;
22070;SDS011;11200;51.488;6.668;2023-06-10T13:18:55;6.32;;;5.75;;
22070;SDS011;11200;51.488;6.668;2023-06-10T13:21:21;5.72;;;5.20;;
22070;SDS011;11200;51.488;6.668;2023-06-10T13:23:46;8.45;;;5.18;;
22070;SDS011;11200;51.488;6.668;2023-06-10T13:26:16;6.10;;;5.30;;
22070;SDS011;11200;51.488;6.668;2023-06-10T13:28:42;5.60;;;5.10;;
22070;SDS011;11200;51.488;6.668;2023-06-10T13:31:08;5.80;;;5.20;;
22070;SDS011;11200;51.488;6.668;2023-06-10T13:33:34;6.03;;;5.43;;
22070;SDS011;11200;51.488;6.668;2023-06-10T13:35:59;6.90;;;5.63;;
22070;SDS011;11200;51.488;6.668;2023-06-10T13:38:25;7.40;;;5.75;;
22070;SDS011;11200;51.488;6.668;2023-06-10T13:40:51;6.07;;;5.28;;
22070;SDS011;11200;51.488;6.668;2023-06-10T13:43:16;6.78;;;5.93;;
22070;SDS011;11200;51.488;6.668;2023-06-10T13:45:42;6.43;;;5.50;;
22070;SDS011;11200;51.488;6.668;2023-06-10T13:48:07;6.10;;;5.50;;
22070;SDS011;11200;51.488;6.668;2023-06-10T13:50:33;6.88;;;5.40;;
22070;SDS011;11200;51.488;6.668;2023-06-10T13:52:59;6.50;;;5.68;;
22070;SDS011;11200;51.488;6.668;2023-06-10T13:55:24;6.15;;;5.53;;
22070;SDS011;11200;51.488;6.668;2023-06-10T13:57:50;7.43;;;5.30;;
22070;SDS011;11200;51.488;6.668;2023-06-10T14:00:16;6.57;;;5.40;;
22070;SDS011;11200;51.488;6.668;2023-06-10T14:02:42;5.78;;;5.28;;
22070;SDS011;11200;51.488;6.668;2023-06-10T14:05:08;5.80;;;5.30;;
22070;SDS011;11200;51.488;6.668;2023-06-10T14:07:34;5.70;;;5.20;;
22070;SDS011;11200;51.488;6.668;2023-06-10T14:10:00;6.00;;;5.40;;
22070;SDS011;11200;51.488;6.668;2023-06-10T14:12:25;5.97;;;5.40;;
22070;SDS011;11200;51.488;6.668;2023-06-10T14:14:51;5.97;;;5.38;;
22070;SDS011;11200;51.488;6.668;2023-06-10T14:17:16;6.47;;;5.72;;
22070;SDS011;11200;51.488;6.668;2023-06-10T14:19:42;6.70;;;5.78;;
22070;SDS011;11200;51.488;6.668;2023-06-10T14:22:08;5.88;;;5.38;;
22070;SDS011;11200;51.488;6.668;2023-06-10T14:24:34;6.10;;;5.50;;
22070;SDS011;11200;51.488;6.668;2023-06-10T14:27:01;5.85;;;5.25;;
22070;SDS011;11200;51.488;6.668;2023-06-10T14:29:26;5.93;;;5.22;;
22070;SDS011;11200;51.488;6.668;2023-06-10T14:31:54;6.30;;;5.70;;
22070;SDS011;11200;51.488;6.668;2023-06-10T14:34:20;6.50;;;5.90;;
22070;SDS011;11200;51.488;6.668;2023-06-10T14:36:45;7.50;;;5.68;;
22070;SDS011;11200;51.488;6.668;2023-06-10T14:39:11;7.38;;;5.57;;
22070;SDS011;11200;51.488;6.668;2023-06-10T14:41:36;5.93;;;5.40;;
22070;SDS011;11200;51.488;6.668;2023-06-10T14:44:02;6.07;;;5.47;;
22070;SDS011;11200;51.488;6.668;2023-06-10T14:46:31;5.88;;;5.32;;
22070;SDS011;11200;51.488;6.668;2023-06-10T14:48:57;6.88;;;5.32;;
22070;SDS011;11200;51.488;6.668;2023-06-10T14:51:24;5.65;;;5.13;;
22070;SDS011;11200;51.488;6.668;2023-06-10T14:53:49;6.32;;;5.45;;
22070;SDS011;11200;51.488;6.668;2023-06-10T14:56:15;6.10;;;5.45;;
22070;SDS011;11200;51.488;6.668;2023-06-10T14:58:41;6.07;;;5.47;;
22070;SDS011;11200;51.488;6.668;2023-06-10T15:01:06;8.77;;;5.57;;
22070;SDS011;11200;51.488;6.668;2023-06-10T15:03:32;7.13;;;5.35;;
22070;SDS011;11200;51.488;6.668;2023-06-10T15:05:58;6.30;;;5.70;;
22070;SDS011;11200;51.488;6.668;2023-06-10T15:08:25;6.18;;;5.55;;
22070;SDS011;11200;51.488;6.668;2023-06-10T15:10:52;7.15;;;5.43;;